Takatori — JL6597 — position and weather

sailwx.info

Track history (hours):
 
Tides and Currents Weather Stations Pressure Air Temp Water Temp Dewpoint Dewpoint Depression Visibility Wind Speed Wind Dir Waves Ship Positions

Takatori

Last reported at 2018-Jun-20 05:55 UTC. Time now 2018-Jun-20 09:04 UTC.
Position N 34°28' E 134°30'.

Length 74 m; draft 4 m.

Type: Cargo ship. MMSI: 431501607.

Date/timePositionNaut miles runAvg speedWind from/ knotsBaromVisibWave heightAir tempDewpointWater temp
2018-Jun-20 05:55N 34°28' E 134°30'511.1
2018-Jun-20 05:26N 34°30' E 134°36'511.1
2018-Jun-20 05:00N 34°32' E 134°41'611.8
2018-Jun-20 04:29N 34°34' E 134°48'1311.3
2018-Jun-20 03:22N 34°36' E 135°03'511.1
2018-Jun-20 02:55N 34°37' E 135°09'410.5
2018-Jun-20 02:30N 34°38' E 135°14'1 2.8
2018-Jun-20 01:59N 34°39' E 135°15'1 2.9
2018-Jun-20 01:29N 34°40' E 135°15'1 2.1
2018-Jun-20 01:00N 34°41' E 135°17'4 7.1
2018-Jun-20 00:30N 34°39' E 135°21'4 7.0
2018-Jun-19 23:57N 34°38' E 135°25'3 6.5
2018-Jun-19 23:29N 34°37' E 135°21'510.9
2018-Jun-19 23:00N 34°36' E 135°15'611.5
2018-Jun-19 22:30N 34°35' E 135°08'1412.2
2018-Jun-19 21:21N 34°33' E 134°51'412.5
2018-Jun-19 21:00N 34°31' E 134°47'611.4
2018-Jun-19 20:27N 34°28' E 134°40'511.2
2018-Jun-19 20:00N 34°27' E 134°34'2 0.1
2018-Jun-18 11:25N 34°28' E 134°31'710.9
2018-Jun-18 10:45N 34°31' E 134°40'310.8
2018-Jun-18 10:26N 34°32' E 134°44'510.4
2018-Jun-18 09:59N 34°34' E 134°49'13 7.5
2018-Jun-18 08:19N 34°36' E 135°04'3 9.7
2018-Jun-18 07:58N 34°37' E 135°08'511.3
2018-Jun-18 07:30N 34°38' E 135°14'2 3.0
2018-Jun-18 06:58N 34°39' E 135°15'0 0.0
2018-Jun-18 06:04N 34°39' E 135°15'0 0.0
2018-Jun-18 05:52N 34°39' E 135°15'0 0.0
2018-Jun-18 05:28N 34°39' E 135°15'1 1.1
2018-Jun-18 04:58N 34°40' E 135°14'0 0.0
2018-Jun-18 04:28N 34°40' E 135°14'0 0.0
2018-Jun-18 03:58N 34°40' E 135°14'2 3.9
2018-Jun-18 03:30N 34°41' E 135°16'0 0.2
2018-Jun-18 02:58N 34°41' E 135°16'0 0.0
2018-Jun-18 02:28N 34°41' E 135°16'0 0.0
2018-Jun-18 01:58N 34°41' E 135°16'1 1.1
2018-Jun-18 01:28N 34°41' E 135°17'1 2.5
2018-Jun-18 01:00N 34°41' E 135°18'5 8.0
2018-Jun-18 00:26N 34°38' E 135°23'2 4.3
2018-Jun-17 23:59N 34°38' E 135°25'0 0.0
2018-Jun-17 23:23N 34°38' E 135°25'0 0.0
2018-Jun-17 22:12N 34°38' E 135°25'2 8.0
2018-Jun-17 21:58N 34°38' E 135°23'4 8.8
2018-Jun-17 21:30N 34°38' E 135°18'510.6
2018-Jun-17 21:00N 34°41' E 135°13'1 1.1
2018-Jun-17 20:29N 34°41' E 135°12'0 0.0
2018-Jun-17 19:59N 34°41' E 135°12'0 0.0
2018-Jun-17 19:26N 34°41' E 135°12'0 0.0
2018-Jun-17 18:56N 34°41' E 135°12'0 0.0
2018-Jun-17 18:29N 34°41' E 135°12'0 0.0
2018-Jun-17 17:57N 34°41' E 135°12'0 0.0
2018-Jun-17 17:30N 34°41' E 135°12'0 0.0
2018-Jun-17 16:58N 34°41' E 135°12'0 0.0
2018-Jun-17 16:28N 34°41' E 135°12'0 0.0
2018-Jun-17 15:58N 34°41' E 135°12'0 0.0
2018-Jun-17 15:28N 34°41' E 135°12'0 0.0
2018-Jun-17 14:58N 34°41' E 135°12'0 0.0
2018-Jun-17 14:28N 34°41' E 135°12'0 0.0
2018-Jun-17 13:58N 34°41' E 135°12'0 0.0
2018-Jun-17 13:28N 34°41' E 135°12'0 0.0
2018-Jun-17 12:58N 34°41' E 135°12'0 0.0
2018-Jun-17 12:28N 34°41' E 135°12'0 0.0
2018-Jun-17 11:58N 34°41' E 135°12'0 0.0
2018-Jun-17 11:28N 34°41' E 135°12'0 0.0
2018-Jun-17 10:47N 34°41' E 135°12'0 0.0
2018-Jun-17 10:30N 34°41' E 135°12'0 0.0
2018-Jun-17 09:55N 34°41' E 135°12'0 0.0
2018-Jun-17 09:30N 34°41' E 135°12'0 0.0
2018-Jun-17 08:47N 34°41' E 135°12'0 0.0
2018-Jun-17 08:30N 34°41' E 135°12'0 0.0
2018-Jun-17 07:59N 34°41' E 135°12'0 0.0
2018-Jun-17 07:29N 34°41' E 135°12'0 0.0
2018-Jun-17 06:59N 34°41' E 135°12'0 0.0
2018-Jun-17 06:29N 34°41' E 135°12'0 0.0
2018-Jun-17 05:53N 34°41' E 135°12'0 0.0
2018-Jun-17 05:25N 34°41' E 135°12'0 0.0
2018-Jun-17 04:37N 34°41' E 135°12'0 0.0
2018-Jun-17 04:25N 34°41' E 135°12'0 0.0
2018-Jun-17 03:49N 34°41' E 135°12'0 0.0
2018-Jun-17 03:01N 34°41' E 135°12'0 0.0
2018-Jun-17 02:55N 34°41' E 135°12'0 0.0
2018-Jun-17 02:25N 34°41' E 135°12'0 0.0
2018-Jun-17 01:54N 34°41' E 135°12'0 0.0
2018-Jun-17 01:30N 34°41' E 135°12'0 0.0
2018-Jun-17 00:59N 34°41' E 135°12'0 0.0
2018-Jun-17 00:30N 34°41' E 135°12'0 0.0
2018-Jun-16 23:58N 34°41' E 135°12'0 0.0
2018-Jun-16 23:27N 34°41' E 135°12'0 0.0
2018-Jun-16 22:57N 34°41' E 135°12'0 0.0
2018-Jun-16 22:27N 34°41' E 135°12'0 0.0
2018-Jun-16 21:51N 34°41' E 135°12'0 0.0
2018-Jun-16 21:30N 34°41' E 135°12'0 0.0
2018-Jun-16 21:00N 34°41' E 135°12'0 0.1
2018-Jun-16 20:29N 34°41' E 135°12'4 7.4
2018-Jun-16 20:00N 34°38' E 135°15'510.6
2018-Jun-16 19:30N 34°36' E 135°09'1711.7
2018-Jun-16 18:02N 34°33' E 134°48'210.3
2018-Jun-16 17:52N 34°33' E 134°47'410.6
2018-Jun-16 17:30N 34°31' E 134°42'510.8
2018-Jun-16 17:01N 34°29' E 134°36'24 0.6
2018-Jun-15 04:25N 34°36' E 135°04'4 9.2
2018-Jun-15 04:00N 34°37' E 135°08'611.1
2018-Jun-15 03:30N 34°38' E 135°15'3 6.3
2018-Jun-15 03:00N 34°41' E 135°17'0 0.0
2018-Jun-15 02:29N 34°41' E 135°17'0 0.7
2018-Jun-15 02:00N 34°41' E 135°16'3 5.4
2018-Jun-15 01:30N 34°41' E 135°13'0 0.1
2018-Jun-15 00:49N 34°41' E 135°13'0 0.0
2018-Jun-15 00:25N 34°41' E 135°13'0 0.0
2018-Jun-14 23:55N 34°41' E 135°13'0 0.0
2018-Jun-14 23:25N 34°41' E 135°13'0 0.0
2018-Jun-14 22:55N 34°41' E 135°13'0 0.0
2018-Jun-14 22:25N 34°41' E 135°13'0 0.0
2018-Jun-14 21:55N 34°41' E 135°13'0 0.0
2018-Jun-14 21:25N 34°41' E 135°13'0 0.1
2018-Jun-14 20:55N 34°41' E 135°13'0 0.1
2018-Jun-14 20:25N 34°41' E 135°13'0 0.0
2018-Jun-14 19:49N 34°41' E 135°13'0 0.0
2018-Jun-14 19:25N 34°41' E 135°13'0 0.1
2018-Jun-14 18:49N 34°41' E 135°13'0 0.0
2018-Jun-14 18:25N 34°41' E 135°13'0 0.0
2018-Jun-14 17:55N 34°41' E 135°13'0 0.1
2018-Jun-14 17:25N 34°41' E 135°13'0 0.0
2018-Jun-14 16:49N 34°41' E 135°13'0 0.0
2018-Jun-14 16:19N 34°41' E 135°13'0 0.0
2018-Jun-14 15:49N 34°41' E 135°13'0 0.0
2018-Jun-14 15:25N 34°41' E 135°13'0 0.0
2018-Jun-14 14:55N 34°41' E 135°13'0 0.0
2018-Jun-14 14:25N 34°41' E 135°13'0 0.0
2018-Jun-14 13:55N 34°41' E 135°13'0 0.0
2018-Jun-14 13:25N 34°41' E 135°13'0 0.0
2018-Jun-14 12:55N 34°41' E 135°13'0 0.0
2018-Jun-14 12:25N 34°41' E 135°13'0 0.0
2018-Jun-14 11:55N 34°41' E 135°13'0 0.0
2018-Jun-14 11:25N 34°41' E 135°13'0 0.0
2018-Jun-14 10:55N 34°41' E 135°13'0 0.0
2018-Jun-14 10:25N 34°41' E 135°13'0 0.0
2018-Jun-14 09:55N 34°41' E 135°13'0 0.0
2018-Jun-14 09:25N 34°41' E 135°13'0 0.1
2018-Jun-14 08:55N 34°41' E 135°13'0 0.1
2018-Jun-14 08:13N 34°41' E 135°13'0 0.0
2018-Jun-14 07:55N 34°41' E 135°13'0 0.0
2018-Jun-14 07:26N 34°41' E 135°13'0 0.0
2018-Jun-14 06:49N 34°41' E 135°13'0 0.0
2018-Jun-14 06:25N 34°41' E 135°13'0 0.0
2018-Jun-14 05:55N 34°41' E 135°13'0 0.0
2018-Jun-14 05:25N 34°41' E 135°13'0 0.0
2018-Jun-14 04:55N 34°41' E 135°13'0 0.0
2018-Jun-14 04:24N 34°41' E 135°13'0 0.1
2018-Jun-14 04:00N 34°41' E 135°13'0 0.1
2018-Jun-14 03:30N 34°41' E 135°13'0 0.0
2018-Jun-14 03:00N 34°41' E 135°13'0 0.0
2018-Jun-14 02:30N 34°41' E 135°13'0 0.1
2018-Jun-14 01:59N 34°41' E 135°13'3 5.3
2018-Jun-14 01:29N 34°39' E 135°15'0 0.0
2018-Jun-14 00:59N 34°39' E 135°15'0 0.9
2018-Jun-14 00:30N 34°39' E 135°15'1 1.1
2018-Jun-13 23:54N 34°38' E 135°15'0 0.0
2018-Jun-13 23:30N 34°38' E 135°15'0 0.0
2018-Jun-13 22:48N 34°38' E 135°15'0 0.0
2018-Jun-13 22:30N 34°38' E 135°15'0 0.0
2018-Jun-13 21:54N 34°38' E 135°15'0 0.0
2018-Jun-13 21:30N 34°38' E 135°15'0 0.0
2018-Jun-13 20:54N 34°38' E 135°15'0 0.0
2018-Jun-13 20:30N 34°38' E 135°15'0 0.0
2018-Jun-13 19:57N 34°38' E 135°15'0 0.0
2018-Jun-13 19:27N 34°38' E 135°15'0 0.0
2018-Jun-13 18:57N 34°38' E 135°15'0 0.1
2018-Jun-13 18:21N 34°38' E 135°15'0 0.0
2018-Jun-13 17:51N 34°38' E 135°15'0 0.0
2018-Jun-13 17:27N 34°38' E 135°15'0 0.0
2018-Jun-13 16:57N 34°38' E 135°15'0 0.0
2018-Jun-13 16:27N 34°38' E 135°15'0 0.1
2018-Jun-13 15:57N 34°38' E 135°15'0 0.0
2018-Jun-13 15:27N 34°38' E 135°15'0 0.1
2018-Jun-13 14:57N 34°38' E 135°15'0 0.0
2018-Jun-13 14:27N 34°38' E 135°15'0 0.0
2018-Jun-13 13:57N 34°38' E 135°15'3 6.6
2018-Jun-13 13:30N 34°37' E 135°12'510.7
2018-Jun-13 13:00N 34°35' E 135°06'11 1.6
2018-Jun-13 05:50N 34°38' E 134°53'4 9.7
2018-Jun-13 05:25N 34°37' E 134°58'3 8.1
2018-Jun-13 05:00N 34°37' E 135°02'4 7.3
2018-Jun-13 04:29N 34°37' E 135°06'510.8
2018-Jun-13 04:00N 34°37' E 135°13'4 8.8
2018-Jun-13 03:30N 34°41' E 135°16'0 0.6
2018-Jun-13 02:58N 34°41' E 135°17'0 0.3
2018-Jun-13 02:27N 34°41' E 135°17'0 0.5
2018-Jun-13 01:52N 34°41' E 135°16'0 0.0
2018-Jun-13 01:28N 34°41' E 135°16'0 0.0
2018-Jun-13 00:57N 34°41' E 135°16'2 4.4
2018-Jun-13 00:30N 34°39' E 135°15'0 0.0
2018-Jun-13 00:00N 34°39' E 135°15'0 0.1
2018-Jun-12 23:24N 34°39' E 135°15'1 1.5
2018-Jun-12 23:00N 34°39' E 135°15'0 0.2
2018-Jun-12 22:09N 34°38' E 135°15'0 0.1
2018-Jun-12 21:21N 34°38' E 135°15'0 0.0
2018-Jun-12 20:57N 34°38' E 135°15'0 0.0
2018-Jun-12 20:27N 34°38' E 135°15'0 0.0
2018-Jun-12 19:57N 34°38' E 135°15'0 0.2
2018-Jun-12 19:27N 34°38' E 135°15'4 8.7
2018-Jun-12 19:00N 34°36' E 135°11'611.8
2018-Jun-12 18:29N 34°35' E 135°04'2611.5
2018-Jun-12 16:15N 34°28' E 134°34'6 0.2
2018-Jun-11 06:48N 34°27' E 134°26'410.0
2018-Jun-11 06:24N 34°28' E 134°31'710.2
2018-Jun-11 05:43N 34°31' E 134°39'210.3
2018-Jun-11 05:29N 34°32' E 134°41'510.0
2018-Jun-11 05:00N 34°34' E 134°47'14 7.4
2018-Jun-11 03:08N 34°36' E 135°03'1 7.0
2018-Jun-11 02:59N 34°36' E 135°04'510.2
2018-Jun-11 02:30N 34°37' E 135°10'4 8.2
2018-Jun-11 01:58N 34°39' E 135°15'0 0.5
2018-Jun-11 01:28N 34°39' E 135°15'0 0.0
2018-Jun-11 00:58N 34°39' E 135°15'0 1.0
2018-Jun-11 00:30N 34°39' E 135°15'2 2.6
2018-Jun-10 23:51N 34°40' E 135°13'0 0.0
2018-Jun-10 23:27N 34°40' E 135°13'0 0.1
2018-Jun-10 22:57N 34°40' E 135°13'0 0.1
2018-Jun-10 22:27N 34°40' E 135°13'0 0.0
2018-Jun-10 21:57N 34°40' E 135°13'0 0.0
2018-Jun-10 21:27N 34°40' E 135°13'0 0.1
2018-Jun-10 20:57N 34°40' E 135°13'0 0.0
2018-Jun-10 20:27N 34°40' E 135°13'0 0.0
2018-Jun-10 19:57N 34°40' E 135°13'0 0.1
2018-Jun-10 19:27N 34°40' E 135°13'0 0.0
2018-Jun-10 18:51N 34°40' E 135°13'0 0.0
2018-Jun-10 18:27N 34°40' E 135°13'0 0.0
2018-Jun-10 17:57N 34°40' E 135°13'0 0.0
2018-Jun-10 17:27N 34°40' E 135°13'0 0.0
2018-Jun-10 16:57N 34°40' E 135°13'0 0.0
2018-Jun-10 16:27N 34°40' E 135°13'0 0.0
2018-Jun-10 15:57N 34°40' E 135°13'0 0.1
2018-Jun-10 15:27N 34°40' E 135°13'0 0.1
2018-Jun-10 14:57N 34°40' E 135°13'0 0.1
2018-Jun-10 14:27N 34°40' E 135°13'0 0.0
2018-Jun-10 13:27N 34°40' E 135°13'0 0.0
2018-Jun-10 12:57N 34°40' E 135°13'0 0.0
2018-Jun-10 12:27N 34°40' E 135°13'0 0.0
2018-Jun-10 11:57N 34°40' E 135°13'0 0.1
2018-Jun-10 11:27N 34°40' E 135°13'0 0.0
2018-Jun-10 10:57N 34°40' E 135°13'0 0.1
2018-Jun-10 10:27N 34°40' E 135°13'0 0.0
2018-Jun-10 09:57N 34°40' E 135°13'0 0.1
2018-Jun-10 09:21N 34°40' E 135°13'0 0.0
2018-Jun-10 08:57N 34°40' E 135°13'0 0.0
2018-Jun-10 08:15N 34°40' E 135°13'0 0.0
2018-Jun-10 07:57N 34°40' E 135°13'0 0.0
2018-Jun-10 07:27N 34°40' E 135°13'0 0.0
2018-Jun-10 06:57N 34°40' E 135°13'0 0.1
2018-Jun-10 06:27N 34°40' E 135°13'0 0.0
2018-Jun-10 05:57N 34°40' E 135°13'  
Track history (hours):
 
Tides and Currents Weather Stations Pressure Air Temp Water Temp Dewpoint Dewpoint Depression Visibility Wind Speed Wind Dir Waves Ship Positions

Takatori

Last reported at 2018-Jun-20 05:55 UTC. Time now 2018-Jun-20 09:04 UTC.
Position N 34°28' E 134°30'.

Length 74 m; draft 4 m.

Type: Cargo ship. MMSI: 431501607.

Date/timePositionNaut miles runAvg speedWind from/ knotsBaromVisibWave heightAir tempDewpointWater temp
2018-Jun-20 05:55N 34°28' E 134°30'511.1
2018-Jun-20 05:26N 34°30' E 134°36'511.1
2018-Jun-20 05:00N 34°32' E 134°41'611.8
2018-Jun-20 04:29N 34°34' E 134°48'1311.3
2018-Jun-20 03:22N 34°36' E 135°03'511.1
2018-Jun-20 02:55N 34°37' E 135°09'410.5
2018-Jun-20 02:30N 34°38' E 135°14'1 2.8
2018-Jun-20 01:59N 34°39' E 135°15'1 2.9
2018-Jun-20 01:29N 34°40' E 135°15'1 2.1
2018-Jun-20 01:00N 34°41' E 135°17'4 7.1
2018-Jun-20 00:30N 34°39' E 135°21'4 7.0
2018-Jun-19 23:57N 34°38' E 135°25'3 6.5
2018-Jun-19 23:29N 34°37' E 135°21'510.9
2018-Jun-19 23:00N 34°36' E 135°15'611.5
2018-Jun-19 22:30N 34°35' E 135°08'1412.2
2018-Jun-19 21:21N 34°33' E 134°51'412.5
2018-Jun-19 21:00N 34°31' E 134°47'611.4
2018-Jun-19 20:27N 34°28' E 134°40'511.2
2018-Jun-19 20:00N 34°27' E 134°34'2 0.1
2018-Jun-18 11:25N 34°28' E 134°31'710.9
2018-Jun-18 10:45N 34°31' E 134°40'310.8
2018-Jun-18 10:26N 34°32' E 134°44'510.4
2018-Jun-18 09:59N 34°34' E 134°49'13 7.5
2018-Jun-18 08:19N 34°36' E 135°04'3 9.7
2018-Jun-18 07:58N 34°37' E 135°08'511.3
2018-Jun-18 07:30N 34°38' E 135°14'2 3.0
2018-Jun-18 06:58N 34°39' E 135°15'0 0.0
2018-Jun-18 06:04N 34°39' E 135°15'0 0.0
2018-Jun-18 05:52N 34°39' E 135°15'0 0.0
2018-Jun-18 05:28N 34°39' E 135°15'1 1.1
2018-Jun-18 04:58N 34°40' E 135°14'0 0.0
2018-Jun-18 04:28N 34°40' E 135°14'0 0.0
2018-Jun-18 03:58N 34°40' E 135°14'2 3.9
2018-Jun-18 03:30N 34°41' E 135°16'0 0.2
2018-Jun-18 02:58N 34°41' E 135°16'0 0.0
2018-Jun-18 02:28N 34°41' E 135°16'0 0.0
2018-Jun-18 01:58N 34°41' E 135°16'1 1.1
2018-Jun-18 01:28N 34°41' E 135°17'1 2.5
2018-Jun-18 01:00N 34°41' E 135°18'5 8.0
2018-Jun-18 00:26N 34°38' E 135°23'2 4.3
2018-Jun-17 23:59N 34°38' E 135°25'0 0.0
2018-Jun-17 23:23N 34°38' E 135°25'0 0.0
2018-Jun-17 22:12N 34°38' E 135°25'2 8.0
2018-Jun-17 21:58N 34°38' E 135°23'4 8.8
2018-Jun-17 21:30N 34°38' E 135°18'510.6
2018-Jun-17 21:00N 34°41' E 135°13'1 1.1
2018-Jun-17 20:29N 34°41' E 135°12'0 0.0
2018-Jun-17 19:59N 34°41' E 135°12'0 0.0
2018-Jun-17 19:26N 34°41' E 135°12'0 0.0
2018-Jun-17 18:56N 34°41' E 135°12'0 0.0
2018-Jun-17 18:29N 34°41' E 135°12'0 0.0
2018-Jun-17 17:57N 34°41' E 135°12'0 0.0
2018-Jun-17 17:30N 34°41' E 135°12'0 0.0
2018-Jun-17 16:58N 34°41' E 135°12'0 0.0
2018-Jun-17 16:28N 34°41' E 135°12'0 0.0
2018-Jun-17 15:58N 34°41' E 135°12'0 0.0
2018-Jun-17 15:28N 34°41' E 135°12'0 0.0
2018-Jun-17 14:58N 34°41' E 135°12'0 0.0
2018-Jun-17 14:28N 34°41' E 135°12'0 0.0
2018-Jun-17 13:58N 34°41' E 135°12'0 0.0
2018-Jun-17 13:28N 34°41' E 135°12'0 0.0
2018-Jun-17 12:58N 34°41' E 135°12'0 0.0
2018-Jun-17 12:28N 34°41' E 135°12'0 0.0
2018-Jun-17 11:58N 34°41' E 135°12'0 0.0
2018-Jun-17 11:28N 34°41' E 135°12'0 0.0
2018-Jun-17 10:47N 34°41' E 135°12'0 0.0
2018-Jun-17 10:30N 34°41' E 135°12'0 0.0
2018-Jun-17 09:55N 34°41' E 135°12'0 0.0
2018-Jun-17 09:30N 34°41' E 135°12'0 0.0
2018-Jun-17 08:47N 34°41' E 135°12'0 0.0
2018-Jun-17 08:30N 34°41' E 135°12'0 0.0
2018-Jun-17 07:59N 34°41' E 135°12'0 0.0
2018-Jun-17 07:29N 34°41' E 135°12'0 0.0
2018-Jun-17 06:59N 34°41' E 135°12'0 0.0
2018-Jun-17 06:29N 34°41' E 135°12'0 0.0
2018-Jun-17 05:53N 34°41' E 135°12'0 0.0
2018-Jun-17 05:25N 34°41' E 135°12'0 0.0
2018-Jun-17 04:37N 34°41' E 135°12'0 0.0
2018-Jun-17 04:25N 34°41' E 135°12'0 0.0
2018-Jun-17 03:49N 34°41' E 135°12'0 0.0
2018-Jun-17 03:01N 34°41' E 135°12'0 0.0
2018-Jun-17 02:55N 34°41' E 135°12'0 0.0
2018-Jun-17 02:25N 34°41' E 135°12'0 0.0
2018-Jun-17 01:54N 34°41' E 135°12'0 0.0
2018-Jun-17 01:30N 34°41' E 135°12'0 0.0
2018-Jun-17 00:59N 34°41' E 135°12'0 0.0
2018-Jun-17 00:30N 34°41' E 135°12'0 0.0
2018-Jun-16 23:58N 34°41' E 135°12'0 0.0
2018-Jun-16 23:27N 34°41' E 135°12'0 0.0
2018-Jun-16 22:57N 34°41' E 135°12'0 0.0
2018-Jun-16 22:27N 34°41' E 135°12'0 0.0
2018-Jun-16 21:51N 34°41' E 135°12'0 0.0
2018-Jun-16 21:30N 34°41' E 135°12'0 0.0
2018-Jun-16 21:00N 34°41' E 135°12'0 0.1
2018-Jun-16 20:29N 34°41' E 135°12'4 7.4
2018-Jun-16 20:00N 34°38' E 135°15'510.6
2018-Jun-16 19:30N 34°36' E 135°09'1711.7
2018-Jun-16 18:02N 34°33' E 134°48'210.3
2018-Jun-16 17:52N 34°33' E 134°47'410.6
2018-Jun-16 17:30N 34°31' E 134°42'510.8
2018-Jun-16 17:01N 34°29' E 134°36'24 0.6
2018-Jun-15 04:25N 34°36' E 135°04'4 9.2
2018-Jun-15 04:00N 34°37' E 135°08'611.1
2018-Jun-15 03:30N 34°38' E 135°15'3 6.3
2018-Jun-15 03:00N 34°41' E 135°17'0 0.0
2018-Jun-15 02:29N 34°41' E 135°17'0 0.7
2018-Jun-15 02:00N 34°41' E 135°16'3 5.4
2018-Jun-15 01:30N 34°41' E 135°13'0 0.1
2018-Jun-15 00:49N 34°41' E 135°13'0 0.0
2018-Jun-15 00:25N 34°41' E 135°13'0 0.0
2018-Jun-14 23:55N 34°41' E 135°13'0 0.0
2018-Jun-14 23:25N 34°41' E 135°13'0 0.0
2018-Jun-14 22:55N 34°41' E 135°13'0 0.0
2018-Jun-14 22:25N 34°41' E 135°13'0 0.0
2018-Jun-14 21:55N 34°41' E 135°13'0 0.0
2018-Jun-14 21:25N 34°41' E 135°13'0 0.1
2018-Jun-14 20:55N 34°41' E 135°13'0 0.1
2018-Jun-14 20:25N 34°41' E 135°13'0 0.0
2018-Jun-14 19:49N 34°41' E 135°13'0 0.0
2018-Jun-14 19:25N 34°41' E 135°13'0 0.1
2018-Jun-14 18:49N 34°41' E 135°13'0 0.0
2018-Jun-14 18:25N 34°41' E 135°13'0 0.0
2018-Jun-14 17:55N 34°41' E 135°13'0 0.1
2018-Jun-14 17:25N 34°41' E 135°13'0 0.0
2018-Jun-14 16:49N 34°41' E 135°13'0 0.0
2018-Jun-14 16:19N 34°41' E 135°13'0 0.0
2018-Jun-14 15:49N 34°41' E 135°13'0 0.0
2018-Jun-14 15:25N 34°41' E 135°13'0 0.0
2018-Jun-14 14:55N 34°41' E 135°13'0 0.0
2018-Jun-14 14:25N 34°41' E 135°13'0 0.0
2018-Jun-14 13:55N 34°41' E 135°13'0 0.0
2018-Jun-14 13:25N 34°41' E 135°13'0 0.0
2018-Jun-14 12:55N 34°41' E 135°13'0 0.0
2018-Jun-14 12:25N 34°41' E 135°13'0 0.0
2018-Jun-14 11:55N 34°41' E 135°13'0 0.0
2018-Jun-14 11:25N 34°41' E 135°13'0 0.0
2018-Jun-14 10:55N 34°41' E 135°13'0 0.0
2018-Jun-14 10:25N 34°41' E 135°13'0 0.0
2018-Jun-14 09:55N 34°41' E 135°13'0 0.0
2018-Jun-14 09:25N 34°41' E 135°13'0 0.1
2018-Jun-14 08:55N 34°41' E 135°13'0 0.1
2018-Jun-14 08:13N 34°41' E 135°13'0 0.0
2018-Jun-14 07:55N 34°41' E 135°13'0 0.0
2018-Jun-14 07:26N 34°41' E 135°13'0 0.0
2018-Jun-14 06:49N 34°41' E 135°13'0 0.0
2018-Jun-14 06:25N 34°41' E 135°13'0 0.0
2018-Jun-14 05:55N 34°41' E 135°13'0 0.0
2018-Jun-14 05:25N 34°41' E 135°13'0 0.0
2018-Jun-14 04:55N 34°41' E 135°13'0 0.0
2018-Jun-14 04:24N 34°41' E 135°13'0 0.1
2018-Jun-14 04:00N 34°41' E 135°13'0 0.1
2018-Jun-14 03:30N 34°41' E 135°13'0 0.0
2018-Jun-14 03:00N 34°41' E 135°13'0 0.0
2018-Jun-14 02:30N 34°41' E 135°13'0 0.1
2018-Jun-14 01:59N 34°41' E 135°13'3 5.3
2018-Jun-14 01:29N 34°39' E 135°15'0 0.0
2018-Jun-14 00:59N 34°39' E 135°15'0 0.9
2018-Jun-14 00:30N 34°39' E 135°15'1 1.1
2018-Jun-13 23:54N 34°38' E 135°15'0 0.0
2018-Jun-13 23:30N 34°38' E 135°15'0 0.0
2018-Jun-13 22:48N 34°38' E 135°15'0 0.0
2018-Jun-13 22:30N 34°38' E 135°15'0 0.0
2018-Jun-13 21:54N 34°38' E 135°15'0 0.0
2018-Jun-13 21:30N 34°38' E 135°15'0 0.0
2018-Jun-13 20:54N 34°38' E 135°15'0 0.0
2018-Jun-13 20:30N 34°38' E 135°15'0 0.0
2018-Jun-13 19:57N 34°38' E 135°15'0 0.0
2018-Jun-13 19:27N 34°38' E 135°15'0 0.0
2018-Jun-13 18:57N 34°38' E 135°15'0 0.1
2018-Jun-13 18:21N 34°38' E 135°15'0 0.0
2018-Jun-13 17:51N 34°38' E 135°15'0 0.0
2018-Jun-13 17:27N 34°38' E 135°15'0 0.0
2018-Jun-13 16:57N 34°38' E 135°15'0 0.0
2018-Jun-13 16:27N 34°38' E 135°15'0 0.1
2018-Jun-13 15:57N 34°38' E 135°15'0 0.0
2018-Jun-13 15:27N 34°38' E 135°15'0 0.1
2018-Jun-13 14:57N 34°38' E 135°15'0 0.0
2018-Jun-13 14:27N 34°38' E 135°15'0 0.0
2018-Jun-13 13:57N 34°38' E 135°15'3 6.6
2018-Jun-13 13:30N 34°37' E 135°12'510.7
2018-Jun-13 13:00N 34°35' E 135°06'11 1.6
2018-Jun-13 05:50N 34°38' E 134°53'4 9.7
2018-Jun-13 05:25N 34°37' E 134°58'3 8.1
2018-Jun-13 05:00N 34°37' E 135°02'4 7.3
2018-Jun-13 04:29N 34°37' E 135°06'510.8
2018-Jun-13 04:00N 34°37' E 135°13'4 8.8
2018-Jun-13 03:30N 34°41' E 135°16'0 0.6
2018-Jun-13 02:58N 34°41' E 135°17'0 0.3
2018-Jun-13 02:27N 34°41' E 135°17'0 0.5
2018-Jun-13 01:52N 34°41' E 135°16'0 0.0
2018-Jun-13 01:28N 34°41' E 135°16'0 0.0
2018-Jun-13 00:57N 34°41' E 135°16'2 4.4
2018-Jun-13 00:30N 34°39' E 135°15'0 0.0
2018-Jun-13 00:00N 34°39' E 135°15'0 0.1
2018-Jun-12 23:24N 34°39' E 135°15'1 1.5
2018-Jun-12 23:00N 34°39' E 135°15'0 0.2
2018-Jun-12 22:09N 34°38' E 135°15'0 0.1
2018-Jun-12 21:21N 34°38' E 135°15'0 0.0
2018-Jun-12 20:57N 34°38' E 135°15'0 0.0
2018-Jun-12 20:27N 34°38' E 135°15'0 0.0
2018-Jun-12 19:57N 34°38' E 135°15'0 0.2
2018-Jun-12 19:27N 34°38' E 135°15'4 8.7
2018-Jun-12 19:00N 34°36' E 135°11'611.8
2018-Jun-12 18:29N 34°35' E 135°04'2611.5
2018-Jun-12 16:15N 34°28' E 134°34'6 0.2
2018-Jun-11 06:48N 34°27' E 134°26'410.0
2018-Jun-11 06:24N 34°28' E 134°31'710.2
2018-Jun-11 05:43N 34°31' E 134°39'210.3
2018-Jun-11 05:29N 34°32' E 134°41'510.0
2018-Jun-11 05:00N 34°34' E 134°47'14 7.4
2018-Jun-11 03:08N 34°36' E 135°03'1 7.0
2018-Jun-11 02:59N 34°36' E 135°04'510.2
2018-Jun-11 02:30N 34°37' E 135°10'4 8.2
2018-Jun-11 01:58N 34°39' E 135°15'0 0.5
2018-Jun-11 01:28N 34°39' E 135°15'0 0.0
2018-Jun-11 00:58N 34°39' E 135°15'0 1.0
2018-Jun-11 00:30N 34°39' E 135°15'2 2.6
2018-Jun-10 23:51N 34°40' E 135°13'0 0.0
2018-Jun-10 23:27N 34°40' E 135°13'0 0.1
2018-Jun-10 22:57N 34°40' E 135°13'0 0.1
2018-Jun-10 22:27N 34°40' E 135°13'0 0.0
2018-Jun-10 21:57N 34°40' E 135°13'0 0.0
2018-Jun-10 21:27N 34°40' E 135°13'0 0.1
2018-Jun-10 20:57N 34°40' E 135°13'0 0.0
2018-Jun-10 20:27N 34°40' E 135°13'0 0.0
2018-Jun-10 19:57N 34°40' E 135°13'0 0.1
2018-Jun-10 19:27N 34°40' E 135°13'0 0.0
2018-Jun-10 18:51N 34°40' E 135°13'0 0.0
2018-Jun-10 18:27N 34°40' E 135°13'0 0.0
2018-Jun-10 17:57N 34°40' E 135°13'0 0.0
2018-Jun-10 17:27N 34°40' E 135°13'0 0.0
2018-Jun-10 16:57N 34°40' E 135°13'0 0.0
2018-Jun-10 16:27N 34°40' E 135°13'0 0.0
2018-Jun-10 15:57N 34°40' E 135°13'0 0.1
2018-Jun-10 15:27N 34°40' E 135°13'0 0.1
2018-Jun-10 14:57N 34°40' E 135°13'0 0.1
2018-Jun-10 14:27N 34°40' E 135°13'0 0.0
2018-Jun-10 13:27N 34°40' E 135°13'0 0.0
2018-Jun-10 12:57N 34°40' E 135°13'0 0.0
2018-Jun-10 12:27N 34°40' E 135°13'0 0.0
2018-Jun-10 11:57N 34°40' E 135°13'0 0.1
2018-Jun-10 11:27N 34°40' E 135°13'0 0.0
2018-Jun-10 10:57N 34°40' E 135°13'0 0.1
2018-Jun-10 10:27N 34°40' E 135°13'0 0.0
2018-Jun-10 09:57N 34°40' E 135°13'0 0.1
2018-Jun-10 09:21N 34°40' E 135°13'0 0.0
2018-Jun-10 08:57N 34°40' E 135°13'0 0.0
2018-Jun-10 08:15N 34°40' E 135°13'0 0.0
2018-Jun-10 07:57N 34°40' E 135°13'0 0.0
2018-Jun-10 07:27N 34°40' E 135°13'0 0.0
2018-Jun-10 06:57N 34°40' E 135°13'0 0.1
2018-Jun-10 06:27N 34°40' E 135°13'0 0.0
2018-Jun-10 05:57N 34°40' E 135°13'  

Dump ship's entire track history